createdAt,value
2019-05-25T00:04:14.667Z,3.70
2019-05-25T00:09:14.539Z,2.60
2019-05-25T00:14:14.503Z,4.60
2019-05-25T00:19:14.449Z,3.10
2019-05-25T00:24:14.424Z,3.80
2019-05-25T00:29:14.402Z,6.00
2019-05-25T00:34:14.277Z,3.50
2019-05-25T00:39:14.235Z,3.60
2019-05-25T00:44:14.218Z,3.90
2019-05-25T00:49:14.134Z,4.20
2019-05-25T00:54:27.070Z,5.50
2019-05-25T00:59:15.043Z,5.00
2019-05-25T01:04:13.966Z,4.60
2019-05-25T01:09:14.011Z,6.70
2019-05-25T01:14:13.846Z,7.40
2019-05-25T01:19:13.829Z,5.00
2019-05-25T01:24:13.736Z,6.30
2019-05-25T01:29:13.724Z,4.30
2019-05-25T01:34:13.748Z,4.70
2019-05-25T01:39:13.576Z,6.60
2019-05-25T01:44:13.562Z,5.80
2019-05-25T01:49:13.451Z,6.10
2019-05-25T01:54:13.413Z,5.40
2019-05-25T01:59:13.411Z,5.80
2019-05-25T02:04:13.351Z,5.80
2019-05-25T02:09:13.329Z,6.30
2019-05-25T02:14:13.271Z,6.10
2019-05-25T02:19:13.380Z,6.60
2019-05-25T02:24:13.285Z,7.80
2019-05-25T02:29:13.210Z,7.50
2019-05-25T02:34:13.098Z,7.90
2019-05-25T02:39:13.031Z,8.50
2019-05-25T02:44:12.935Z,8.90
2019-05-25T02:49:13.020Z,9.10
2019-05-25T02:54:13.018Z,8.80
2019-05-25T02:59:12.894Z,9.70
2019-05-25T03:04:12.880Z,11.40
2019-05-25T03:09:12.721Z,10.20
2019-05-25T03:14:12.735Z,9.70
2019-05-25T03:19:12.606Z,16.10
2019-05-25T03:24:12.472Z,13.80
2019-05-25T03:29:12.413Z,13.80
2019-05-25T03:34:12.598Z,12.60
2019-05-25T03:39:12.410Z,13.00
2019-05-25T03:44:12.356Z,14.20
2019-05-25T03:49:12.274Z,15.20
2019-05-25T03:54:12.238Z,15.90
2019-05-25T03:59:12.090Z,15.20
2019-05-25T04:04:12.024Z,15.90
2019-05-25T04:09:13.063Z,17.20
2019-05-25T04:14:12.002Z,16.80
2019-05-25T04:19:11.862Z,17.90
2019-05-25T04:24:11.914Z,22.80
2019-05-25T04:29:11.844Z,16.60
2019-05-25T04:34:11.739Z,16.10
2019-05-25T04:39:11.717Z,14.50
2019-05-25T04:44:11.776Z,15.70
2019-05-25T04:49:11.757Z,15.90
2019-05-25T04:54:13.525Z,15.40
2019-05-25T04:59:12.601Z,18.00
2019-05-25T05:04:11.491Z,15.00
2019-05-25T05:09:11.443Z,16.60
2019-05-25T05:14:11.324Z,18.10
2019-05-25T05:19:11.234Z,14.90
2019-05-25T05:24:11.167Z,12.50
2019-05-25T05:29:11.122Z,13.00
2019-05-25T05:34:11.012Z,14.40
2019-05-25T05:39:11.007Z,11.00
2019-05-25T05:44:11.064Z,12.00
2019-05-25T05:49:11.983Z,13.60
2019-05-25T05:54:11.037Z,14.90
2019-05-25T05:59:10.942Z,10.30
2019-05-25T06:04:10.982Z,10.40
2019-05-25T06:09:10.735Z,11.20
2019-05-25T06:14:10.686Z,13.30
2019-05-25T06:19:13.797Z,11.50
2019-05-25T06:24:10.581Z,13.10
2019-05-25T06:29:10.447Z,13.50
2019-05-25T06:34:10.374Z,11.80
2019-05-25T06:39:10.354Z,12.90
2019-05-25T06:44:10.283Z,11.10
2019-05-25T06:49:10.284Z,12.70
2019-05-25T06:54:10.314Z,11.20
2019-05-25T06:59:10.242Z,8.60
2019-05-25T07:04:10.305Z,9.10
2019-05-25T07:09:10.122Z,9.70
2019-05-25T07:14:09.977Z,7.50
2019-05-25T07:19:09.989Z,8.40
2019-05-25T07:24:09.940Z,11.10
2019-05-25T07:29:09.866Z,9.70
2019-05-25T07:34:09.774Z,7.10
2019-05-25T07:39:09.708Z,6.50
2019-05-25T07:44:09.808Z,6.90
2019-05-25T07:49:09.773Z,6.70
2019-05-25T07:54:09.570Z,6.70
2019-05-25T07:59:09.522Z,6.30
2019-05-25T08:04:09.492Z,6.80
2019-05-25T08:09:09.465Z,7.80
2019-05-25T08:14:09.525Z,6.90
2019-05-25T08:19:09.403Z,7.80
2019-05-25T08:24:09.333Z,7.50
2019-05-25T08:29:09.263Z,9.10
2019-05-25T08:34:09.480Z,7.80
2019-05-25T08:39:09.219Z,6.90
2019-05-25T08:44:09.124Z,7.70
2019-05-25T08:49:09.138Z,6.60
2019-05-25T08:54:09.085Z,6.30
2019-05-25T08:59:09.051Z,7.20
2019-05-25T09:04:08.959Z,5.40
2019-05-25T09:09:09.018Z,22.10
2019-05-25T09:14:08.919Z,6.60
2019-05-25T09:19:08.907Z,6.10
2019-05-25T09:24:08.819Z,9.30
2019-05-25T09:29:08.666Z,5.60
2019-05-25T09:34:08.657Z,5.70
2019-05-25T09:39:08.584Z,5.30
2019-05-25T09:44:08.566Z,6.80
2019-05-25T09:49:08.551Z,5.60
2019-05-25T09:54:08.751Z,5.60
2019-05-25T09:59:19.630Z,6.80
2019-05-25T10:04:09.448Z,6.40
2019-05-25T10:09:08.329Z,6.00
2019-05-25T10:14:08.350Z,6.00
2019-05-25T10:19:08.227Z,6.60
2019-05-25T10:24:08.236Z,6.40
2019-05-25T10:29:08.291Z,5.40
2019-05-25T10:34:08.257Z,5.80
2019-05-25T10:39:08.113Z,5.50
2019-05-25T10:44:08.051Z,5.80
2019-05-25T10:49:11.090Z,6.30
2019-05-25T10:54:07.946Z,5.60
2019-05-25T10:59:07.893Z,5.40
2019-05-25T11:04:07.946Z,5.60
2019-05-25T11:09:07.968Z,5.20
2019-05-25T11:14:07.809Z,5.60
2019-05-25T11:19:07.879Z,5.80
2019-05-25T11:24:07.844Z,5.60
2019-05-25T11:29:07.979Z,4.70
2019-05-25T11:34:07.772Z,6.00
2019-05-25T11:39:07.701Z,5.00
2019-05-25T11:44:07.705Z,5.80
2019-05-25T11:49:21.618Z,5.40
2019-05-25T11:54:08.536Z,6.60
2019-05-25T11:59:07.531Z,5.40
2019-05-25T12:04:07.687Z,5.00
2019-05-25T12:09:07.428Z,6.00
2019-05-25T12:14:07.483Z,4.50
2019-05-25T12:19:08.437Z,6.00
2019-05-25T12:24:07.350Z,5.40
2019-05-25T12:29:07.417Z,5.20
2019-05-25T12:34:07.297Z,5.20
2019-05-25T12:39:07.194Z,5.90
2019-05-25T12:44:07.172Z,6.60
2019-05-25T12:49:07.097Z,6.80
2019-05-25T12:54:07.090Z,7.60
2019-05-25T12:59:07.046Z,6.90
2019-05-25T13:04:07.095Z,7.80
2019-05-25T13:09:07.043Z,7.60
2019-05-25T13:14:14.484Z,6.80
2019-05-25T13:19:07.951Z,7.50
2019-05-25T13:24:06.933Z,7.00
2019-05-25T13:29:06.829Z,6.30
2019-05-25T13:34:06.739Z,4.20
2019-05-25T13:39:06.906Z,5.30
2019-05-25T13:44:06.691Z,3.40
2019-05-25T13:49:06.621Z,4.70
2019-05-25T13:54:06.641Z,5.10
2019-05-25T13:59:06.542Z,4.90
2019-05-25T14:04:06.592Z,4.90
2019-05-25T14:09:06.478Z,4.80
2019-05-25T14:14:06.429Z,4.50
2019-05-25T14:19:06.381Z,4.20
2019-05-25T14:24:06.390Z,4.70
2019-05-25T14:29:06.312Z,3.90
2019-05-25T14:34:06.270Z,3.60
2019-05-25T14:39:06.290Z,4.60
2019-05-25T14:44:06.167Z,4.70
2019-05-25T14:49:06.140Z,4.70
2019-05-25T14:54:06.073Z,5.00
2019-05-25T14:59:06.080Z,5.70
2019-05-25T15:04:06.120Z,6.60
2019-05-25T15:09:06.006Z,4.90
2019-05-25T15:14:06.221Z,5.80
2019-05-25T15:19:05.921Z,5.50
2019-05-25T15:24:06.003Z,5.40
2019-05-25T15:29:05.797Z,5.40
2019-05-25T15:34:06.239Z,7.50
2019-05-25T15:39:05.891Z,7.00
2019-05-25T15:44:05.685Z,5.50
2019-05-25T15:49:05.599Z,6.90
2019-05-25T15:54:10.147Z,8.50
2019-05-25T15:59:06.652Z,5.70
2019-05-25T16:04:05.623Z,7.00
2019-05-25T16:09:05.545Z,6.50
2019-05-25T16:14:07.559Z,7.70
2019-05-25T16:19:05.444Z,9.00
2019-05-25T16:24:08.027Z,5.80
2019-05-25T16:29:05.238Z,6.70
2019-05-25T16:34:05.243Z,7.00
2019-05-25T16:39:05.136Z,6.80
2019-05-25T16:44:05.103Z,7.80
2019-05-25T16:49:05.039Z,7.20
2019-05-25T16:54:04.999Z,10.60
2019-05-25T16:59:04.954Z,6.60
2019-05-25T17:04:04.954Z,5.50
2019-05-25T17:09:04.879Z,5.70
2019-05-25T17:14:04.809Z,6.50
2019-05-25T17:19:04.760Z,3.80
2019-05-25T17:24:04.734Z,3.80
2019-05-25T17:29:04.668Z,3.90
2019-05-25T17:34:04.645Z,3.80
2019-05-25T17:39:04.583Z,3.50
2019-05-25T17:44:04.552Z,3.90
2019-05-25T17:49:04.484Z,3.90
2019-05-25T17:54:04.472Z,2.90
2019-05-25T17:59:04.410Z,4.40
2019-05-25T18:04:07.740Z,4.30
2019-05-25T18:09:04.402Z,3.80
2019-05-25T18:14:04.402Z,4.80
2019-05-25T18:19:04.342Z,3.40
2019-05-25T18:24:04.367Z,6.60
2019-05-25T18:29:04.119Z,6.60
2019-05-25T18:34:04.089Z,6.50
2019-05-25T18:39:04.022Z,4.90
2019-05-25T18:44:04.036Z,6.70
2019-05-25T18:49:03.996Z,7.00
2019-05-25T18:54:03.929Z,6.90
2019-05-25T18:59:03.858Z,7.00
2019-05-25T19:04:03.791Z,7.90
2019-05-25T19:09:03.780Z,6.40
2019-05-25T19:14:03.681Z,7.10
2019-05-25T19:19:03.864Z,9.10
2019-05-25T19:24:03.659Z,6.50
2019-05-25T19:29:05.646Z,9.50
2019-05-25T19:34:03.484Z,6.90
2019-05-25T19:39:03.341Z,10.50
2019-05-25T19:44:03.255Z,7.20
2019-05-25T19:49:03.227Z,9.30
2019-05-25T19:54:03.146Z,6.90
2019-05-25T19:59:03.112Z,7.80
2019-05-25T20:04:03.082Z,5.10
2019-05-25T20:09:03.014Z,7.70
2019-05-25T20:14:02.914Z,6.60
2019-05-25T20:19:02.895Z,6.90
2019-05-25T20:24:02.922Z,9.00
2019-05-25T20:29:02.797Z,10.80
2019-05-25T20:34:02.697Z,17.20
2019-05-25T20:39:02.687Z,11.40
2019-05-25T20:44:02.612Z,13.60
2019-05-25T20:49:02.548Z,9.80
2019-05-25T20:54:02.532Z,11.70
2019-05-25T20:59:02.450Z,9.40
2019-05-25T21:04:02.374Z,10.90
2019-05-25T21:09:02.346Z,9.90
2019-05-25T21:14:02.303Z,11.00
2019-05-25T21:19:03.107Z,8.90
2019-05-25T21:24:02.185Z,8.90
2019-05-25T21:29:02.103Z,8.90
2019-05-25T21:34:02.084Z,8.70
2019-05-25T21:39:02.006Z,8.40
2019-05-25T21:44:01.947Z,10.20
2019-05-25T21:49:01.902Z,12.70
2019-05-25T21:54:01.882Z,9.60
2019-05-25T21:59:01.783Z,10.20
2019-05-25T22:04:01.736Z,10.10
2019-05-25T22:09:01.664Z,11.40
2019-05-25T22:14:01.620Z,13.40
2019-05-25T22:19:01.595Z,14.30
2019-05-25T22:24:01.496Z,10.90
2019-05-25T22:29:01.443Z,13.40
2019-05-25T22:34:01.377Z,12.40
2019-05-25T22:39:01.374Z,15.60
2019-05-25T22:44:01.326Z,15.10
2019-05-25T22:49:01.287Z,14.70
2019-05-25T22:54:01.231Z,13.30
2019-05-25T22:59:01.122Z,14.90
2019-05-25T23:04:01.097Z,14.90
2019-05-25T23:09:01.039Z,14.70
2019-05-25T23:14:00.944Z,14.20
2019-05-25T23:19:00.944Z,12.60
2019-05-25T23:24:00.909Z,13.80
2019-05-25T23:29:00.813Z,15.30
2019-05-25T23:34:00.762Z,15.20
2019-05-25T23:39:00.701Z,15.70
2019-05-25T23:44:00.692Z,16.50
2019-05-25T23:49:00.612Z,19.10
2019-05-25T23:54:00.588Z,18.00
2019-05-25T23:59:00.512Z,16.90
